Nearby METAR Reports

 

ENRY - Rygge (nor-Afb), Norway
Distance from station: SØ 12km
Oppdatert: 21/06/2021 10:50
Hovedsaklig skyet
Hovedsaklig skyet
 Vind fra S
Vind: S 19 km/h
Temperatur: 15°C
Duggpunkt: 12°C
Fuktighet: 82%
Barometer: 1006 hPa
Clouds: Hovedsaklig skyet
Visibility: 10 km
Cloud details: Hovedsaklig skyet 274 m
2021/06/21 08:50 ENRY 210850Z 17010KT 9999 BKN009 15/12 Q1006 BECMG BKN012
ENTO - Torp (civ/Nor-Af, Norway
Distance from station: SV 34km
Oppdatert: 21/06/2021 10:50
Hovedsaklig skyet
Hovedsaklig skyet
 Vind fra SSØ
Vind: SSØ 7 km/h
Temperatur: 16°C
Duggpunkt: 15°C
Fuktighet: 94%
Barometer: 1006 hPa
Clouds: Hovedsaklig skyet
Visibility: 10 km
Cloud details: Delvis skyet 183 m
Hovedsaklig skyet 427 m
2021/06/21 08:50 ENTO 210850Z 15004KT 9999 SCT006 BKN014 16/15 Q1006 TEMPO SCT015 BKN035
 
ENNO - Notodden, Norway
Distance from station: V 80km
Oppdatert: 21/06/2021 10:50
Klart
Klart
 Vind fra V
Vind: V 7 km/h
Temperatur: 21°C
Duggpunkt: 11°C
Fuktighet: 53%
Barometer: 1005 hPa
Oversikt: Klart
Visibility: greater than 10 km
2021/06/21 08:50 ENNO 210850Z 28004KT 220V320 CAVOK 21/11 Q1005
ENGM - Oslo/Gardermoen, Norway
Distance from station: NNØ 88km
Oppdatert: 21/06/2021 10:50
Yr, Regn, Tåke, Hovedsaklig skyet
Yr, Regn, Tåke, Hovedsaklig skyet
 Vind fra S
Vind: S 22 km/h
Temperatur: 13°C
Duggpunkt: 12°C
Fuktighet: 94%
Barometer: 1006 hPa
Oversikt: Yr, Regn, Tåke
Clouds: Hovedsaklig skyet
Visibility: 5 km
Cloud details: Delvis skyet 122 m
Hovedsaklig skyet 213 m
2021/06/21 08:50 ENGM 210850Z 17012KT 4700 -DZRA BR SCT004 BKN007 13/12 Q1006 TEMPO 8000 -DZRA BKN004
 
ESOK - Karlstad North, Sweden
Distance from station: Ø 153km
Oppdatert: 21/06/2021 10:50
Hovedsaklig skyet
Hovedsaklig skyet
 Vind fra S
Vind: S 26 km/h
Temperatur: 17°C
Duggpunkt: 12°C
Fuktighet: 73%
Barometer: 1008 hPa
Clouds: Hovedsaklig skyet
Visibility: 10 km
Cloud details: Hovedsaklig skyet 579 m
2021/06/21 08:50 ESOK 210850Z 17014KT 9999 BKN019 17/12 Q1008
ESST - Torsby, Sweden
Distance from station: ØNØ 154km
Oppdatert: 21/06/2021 10:50
Overskyet
Overskyet
 Vind fra SSØ
Vind: SSØ 17 km/h
Temperatur: 16°C
Duggpunkt: 12°C
Fuktighet: 77%
Barometer: 1007 hPa
Clouds: Overskyet
Visibility: 10 km
Cloud details: Hovedsaklig skyet 792 m
Overskyet 1006 m
2021/06/21 08:50 ESST 210850Z 16009KT 110V190 9999 BKN026 OVC033 16/12 Q1007
 
ESGT - Trollhattan (pvt, Sweden
Distance from station: SØ 159km
Oppdatert: 21/06/2021 10:50
Delvis skyet
Delvis skyet
 Vind fra SV
Vind: SV 24 km/h
Temperatur: 16°C
Duggpunkt: 10°C
Fuktighet: 68%
Barometer: 1008 hPa
Clouds: Delvis skyet
Visibility: 10 km
Cloud details: Delvis skyet 762 m
2021/06/21 08:50 ESGT 210850Z 23013KT 9999 SCT025 16/10 Q1008
ESIB - Satenas (swe-Afb, Sweden
Distance from station: SØ 164km
Oppdatert: 21/06/2021 10:50
Delvis skyet
Delvis skyet
 Vind fra SV
Vind: SV 24 km/h
Temperatur: 17°C
Duggpunkt: 11°C
Fuktighet: 68%
Barometer: 1008 hPa
Clouds: Delvis skyet
Visibility: 10 km
Cloud details: Delvis skyet 792 m
2021/06/21 08:50 ESIB 210850Z 23013KT 9999 SCT026 17/11 Q1008
 
ENCN - Kristiansand/Kje, Norway
Distance from station: SV 202km
Oppdatert: 21/06/2021 10:50
Klart
Klart
 Vind fra NV
Vind: NV 11 km/h
Temperatur: 20°C
Duggpunkt: 8°C
Fuktighet: 46%
Barometer: 1006 hPa
Oversikt: Klart
Visibility: greater than 10 km
2021/06/21 08:50 ENCN 210850Z 31006KT 270V350 CAVOK 20/08 Q1006
EKSN - Sindal Airport, Denmark
Distance from station: S 217km
Oppdatert: 21/06/2021 10:50
Hovedsaklig skyet
Hovedsaklig skyet
 Vind fra VSV
Vind: VSV 26 km/h
Temperatur: 14°C
Duggpunkt: 11°C
Fuktighet: 82%
Barometer: 1009 hPa
Clouds: Hovedsaklig skyet
Visibility: 10 km
Cloud details: Delvis skyet 396 m
Hovedsaklig skyet 671 m
2021/06/21 08:50 EKSN 210850Z 24014KT 9999 SCT013 BKN022 14/11 Q1009
 
ESGG - Goteborg/Landvet, Sweden
Distance from station: SSØ 220km
Oppdatert: 21/06/2021 10:50
Hovedsaklig skyet
Hovedsaklig skyet
 Vind fra SSV
Vind: SSV 17 km/h
Temperatur: 14°C
Duggpunkt: 10°C
Fuktighet: 77%
Barometer: 1009 hPa
Clouds: Hovedsaklig skyet
Visibility: 10 km
Cloud details: Hovedsaklig skyet 579 m
2021/06/21 08:50 ESGG 210850Z 20009KT 9999 BKN019 14/10 Q1009
ESGR - Skovde Airport, Sweden
Distance from station: ØSØ 221km
Oppdatert: 21/06/2021 10:50
Few Clouds
Few Clouds
 Vind fra SSV
Vind: SSV 15 km/h
Temperatur: 17°C
Duggpunkt: 12°C
Fuktighet: 73%
Barometer: 1009 hPa
Clouds: Few Clouds
Visibility: 10 km
Cloud details: Few Clouds 792 m
2021/06/21 08:50 ESGR 210850Z AUTO 21008KT 9999 FEW026/// 17/12 Q1009
 
ESOE - Orebro (private), Sweden
Distance from station: Ø 252km
Oppdatert: 21/06/2021 10:50
Overskyet
Overskyet
 Vind fra SV
Vind: SV 19 km/h
Temperatur: 19°C
Duggpunkt: 12°C
Fuktighet: 64%
Barometer: 1009 hPa
Clouds: Overskyet
Visibility: 10 km
Cloud details: Overskyet 732 m
2021/06/21 08:50 ESOE 210850Z AUTO 23010KT 200V260 9999 OVC024/// 19/12 Q1009
EKYT - Alborg, Denmark
Distance from station: S 264km
Oppdatert: 21/06/2021 10:55
Hovedsaklig skyet
Hovedsaklig skyet
 Vind fra V
Vind: V 17 km/h
Temperatur: 14°C
Duggpunkt: 10°C
Fuktighet: 77%
Barometer: 1009 hPa
Clouds: Hovedsaklig skyet
Visibility: 10 km
Cloud details: Hovedsaklig skyet 579 m
2021/06/21 08:55 EKYT 210855Z 26009KT 9999 BKN019 14/10 Q1009
 
ENSG - Sogndal/Haukasen, Norway
Distance from station: NV 269km
Oppdatert: 21/06/2021 10:50
Hovedsaklig skyet
Hovedsaklig skyet
 Vind fra V
Vind: V 24 km/h
Temperatur: 10°C
Wind Chill: 7°C
Duggpunkt: 6°C
Fuktighet: 76%
Barometer: 1008 hPa
Clouds: Hovedsaklig skyet
Visibility: 10 km
Cloud details: Few Clouds 549 m
Delvis skyet 1067 m
Hovedsaklig skyet 1524 m
2021/06/21 08:50 ENSG 210850Z 27013KT 9999 FEW018 SCT035 BKN050 10/06 Q1008 RMK WIND 3806FT 27020KT
ESGJ - Jonkoping Airpor, Sweden
Distance from station: SØ 273km
Oppdatert: 21/06/2021 10:50
Few Clouds
Few Clouds
 Vind fra VSV
Vind: VSV 15 km/h
Temperatur: 17°C
Duggpunkt: 13°C
Fuktighet: 77%
Barometer: 1009 hPa
Clouds: Few Clouds
Visibility: 10 km
Cloud details: Few Clouds 610 m
2021/06/21 08:50 ESGJ 210850Z 25008KT 9999 FEW020 17/13 Q1009
 
ENZV - Stavanger/Sola(A, Norway
Distance from station: V 292km
Oppdatert: 21/06/2021 10:50
Hovedsaklig skyet
Hovedsaklig skyet
 Vind fra NV
Vind: NV 24 km/h
Temperatur: 13°C
Duggpunkt: 8°C
Fuktighet: 72%
Barometer: 1011 hPa
Clouds: Hovedsaklig skyet
Visibility: 10 km
Cloud details: Few Clouds 579 m
Hovedsaklig skyet 1097 m
2021/06/21 08:50 ENZV 210850Z 31013KT 9999 FEW019 BKN036 13/08 Q1011 NOSIG
ESSD - Borlange (swe-Af, Sweden
Distance from station: ØNØ 292km
Oppdatert: 21/06/2021 10:50
Hovedsaklig skyet
Hovedsaklig skyet
 Vind fra S
Vind: S 19 km/h
Temperatur: 16°C
Duggpunkt: 12°C
Fuktighet: 77%
Barometer: 1007 hPa
Clouds: Hovedsaklig skyet
Visibility: 10 km
Cloud details: Hovedsaklig skyet 610 m
2021/06/21 08:50 ESSD 210850Z 19010KT 160V230 9999 BKN020 16/12 Q1007
 
ENSO - Stord/Soerstokke, Norway
Distance from station: V 300km
Oppdatert: 21/06/2021 10:50

 Vind fra VNV
Vind: VNV 17 km/h
Visibility: 10 km
2021/06/21 08:50 ENSO 210850Z 30009KT 9999 250V350 FEW012 SCT020 BKN035 13/09 Q1011
ESCF - Linkoping/Malmen, Sweden
Distance from station: ØSØ 305km
Oppdatert: 21/06/2021 10:50
Hovedsaklig skyet
Hovedsaklig skyet
 Vind fra SSV
Vind: SSV 11 km/h
Temperatur: 22°C
Duggpunkt: 13°C
Fuktighet: 57%
Barometer: 1008 hPa
Clouds: Hovedsaklig skyet
Visibility: 10 km
Cloud details: Few Clouds 914 m
Hovedsaklig skyet 6096 m
2021/06/21 08:50 ESCF 210850Z 21006KT 180V240 9999 FEW030 BKN200 22/13 Q1008